createdAt,value
2022-10-17T00:01:16.740Z,26.95
2022-10-17T00:03:44.396Z,26.88
2022-10-17T00:06:14.365Z,30.58
2022-10-17T00:08:45.646Z,27.60
2022-10-17T00:11:17.236Z,32.63
2022-10-17T00:13:45.942Z,29.08
2022-10-17T00:16:14.308Z,35.60
2022-10-17T00:18:48.724Z,29.67
2022-10-17T00:21:18.181Z,26.05
2022-10-17T00:23:47.034Z,25.52
2022-10-17T00:26:16.137Z,29.02
2022-10-17T00:28:47.174Z,25.75
2022-10-17T00:31:20.626Z,27.65
2022-10-17T00:33:51.700Z,29.48
2022-10-17T00:36:24.755Z,28.10
2022-10-17T00:38:55.783Z,35.80
2022-10-17T00:41:30.586Z,28.08
2022-10-17T00:44:27.785Z,28.67
2022-10-17T00:47:04.082Z,26.15
2022-10-17T00:49:34.668Z,27.75
2022-10-17T00:52:08.663Z,25.75
2022-10-17T00:54:41.473Z,25.23
2022-10-17T00:57:10.074Z,27.48
2022-10-17T00:59:40.384Z,26.92
2022-10-17T01:02:17.329Z,24.73
2022-10-17T01:04:48.529Z,25.02
2022-10-17T01:07:16.865Z,26.92
2022-10-17T01:09:46.103Z,30.58
2022-10-17T01:12:54.771Z,27.15
2022-10-17T01:15:42.249Z,26.23
2022-10-17T01:18:26.447Z,24.98
2022-10-17T01:21:17.495Z,25.50
2022-10-17T01:24:19.088Z,23.90
2022-10-17T01:27:11.291Z,27.75
2022-10-17T01:30:00.792Z,31.17
2022-10-17T01:32:40.474Z,30.35
2022-10-17T01:35:24.483Z,31.20
2022-10-17T01:38:38.532Z,26.50
2022-10-17T01:41:33.164Z,30.45
2022-10-17T01:44:20.901Z,27.48
2022-10-17T01:46:53.969Z,28.65
2022-10-17T01:49:29.967Z,26.58
2022-10-17T01:52:07.707Z,24.98
2022-10-17T01:54:55.244Z,29.33
2022-10-17T01:57:32.461Z,35.85
2022-10-17T02:00:02.160Z,35.72
2022-10-17T02:02:35.104Z,31.33
2022-10-17T02:05:07.212Z,32.88
2022-10-17T02:07:37.923Z,36.22
2022-10-17T02:10:16.366Z,31.85
2022-10-17T02:13:14.416Z,33.13
2022-10-17T02:16:28.229Z,29.25
2022-10-17T02:19:24.518Z,30.65
2022-10-17T02:22:13.389Z,32.20
2022-10-17T02:25:01.063Z,33.97
2022-10-17T02:27:45.123Z,29.75
2022-10-17T02:30:14.948Z,27.65
2022-10-17T02:32:55.060Z,28.85
2022-10-17T02:35:33.166Z,28.10
2022-10-17T02:38:02.342Z,29.23
2022-10-17T02:40:34.951Z,30.65
2022-10-17T02:43:02.680Z,30.70
2022-10-17T02:45:36.103Z,35.38
2022-10-17T02:48:28.060Z,27.67
2022-10-17T02:51:04.081Z,28.75
2022-10-17T02:54:07.679Z,33.08
2022-10-17T02:56:48.978Z,30.75
2022-10-17T02:59:20.844Z,28.55
2022-10-17T03:01:51.830Z,29.10
2022-10-17T03:04:19.919Z,25.52
2022-10-17T03:06:49.347Z,28.75
2022-10-17T03:09:17.691Z,26.63
2022-10-17T03:11:45.908Z,27.67
2022-10-17T03:14:13.761Z,28.15
2022-10-17T03:16:42.589Z,28.13
2022-10-17T03:19:10.477Z,27.70
2022-10-17T03:21:38.788Z,28.80
2022-10-17T03:24:08.889Z,31.95
2022-10-17T03:26:37.075Z,29.73
2022-10-17T03:29:05.528Z,29.17
2022-10-17T03:31:34.999Z,32.15
2022-10-17T03:34:04.296Z,27.40
2022-10-17T03:36:32.359Z,29.48
2022-10-17T03:39:00.177Z,26.08
2022-10-17T03:41:28.868Z,25.77
2022-10-17T03:43:56.624Z,25.23
2022-10-17T03:46:25.601Z,23.75
2022-10-17T03:48:55.137Z,27.80
2022-10-17T03:51:23.485Z,25.48
2022-10-17T03:53:55.582Z,34.22
2022-10-17T03:56:25.455Z,28.95
2022-10-17T03:59:13.274Z,26.65
2022-10-17T04:01:42.186Z,28.13
2022-10-17T04:04:10.940Z,26.23
2022-10-17T04:06:39.427Z,29.95
2022-10-17T04:09:08.363Z,31.60
2022-10-17T04:12:05.852Z,22.15
2022-10-17T04:14:34.405Z,26.77
2022-10-17T04:17:03.691Z,26.65
2022-10-17T04:19:32.925Z,23.50
2022-10-17T04:22:04.265Z,23.98
2022-10-17T04:24:35.603Z,22.55
2022-10-17T04:27:12.759Z,23.17
2022-10-17T04:29:44.522Z,22.10
2022-10-17T04:32:18.027Z,20.67
2022-10-17T04:35:06.750Z,22.98
2022-10-17T04:37:35.189Z,26.40
2022-10-17T04:40:10.065Z,26.45
2022-10-17T04:42:38.636Z,28.30
2022-10-17T04:45:08.088Z,28.13
2022-10-17T04:47:37.647Z,30.42
2022-10-17T04:50:06.635Z,30.80
2022-10-17T04:52:39.733Z,24.90
2022-10-17T04:55:09.370Z,23.58
2022-10-17T04:57:37.830Z,24.10
2022-10-17T05:00:13.788Z,24.45
2022-10-17T05:03:02.163Z,25.98
2022-10-17T05:05:31.288Z,24.88
2022-10-17T05:07:59.710Z,26.67
2022-10-17T05:10:31.793Z,24.95
2022-10-17T05:13:03.324Z,27.35
2022-10-17T05:15:33.659Z,26.98
2022-10-17T05:18:03.403Z,28.42
2022-10-17T05:20:33.691Z,28.33
2022-10-17T05:23:02.657Z,49.75
2022-10-17T05:25:36.003Z,52.70
2022-10-17T05:28:04.580Z,55.45
2022-10-17T05:30:35.232Z,49.30
2022-10-17T05:33:06.886Z,67.22
2022-10-17T05:35:35.098Z,56.85
2022-10-17T05:38:03.353Z,44.38
2022-10-17T05:40:34.661Z,36.13
2022-10-17T05:43:04.049Z,33.35
2022-10-17T05:45:32.154Z,32.63
2022-10-17T05:48:01.215Z,48.03
2022-10-17T05:50:29.644Z,45.55
2022-10-17T05:53:05.684Z,55.40
2022-10-17T05:55:39.495Z,59.38
2022-10-17T05:58:09.751Z,45.55
2022-10-17T06:03:32.928Z,32.17
2022-10-17T06:06:07.206Z,29.13
2022-10-17T06:08:36.083Z,27.55
2022-10-17T06:11:09.083Z,33.30
2022-10-17T06:13:39.562Z,28.42
2022-10-17T06:16:13.970Z,30.17
2022-10-17T06:18:42.152Z,28.52
2022-10-17T06:21:11.972Z,32.33
2022-10-17T06:23:47.954Z,26.75
2022-10-17T06:26:21.077Z,26.63
2022-10-17T06:28:50.168Z,31.05
2022-10-17T06:31:19.191Z,34.67
2022-10-17T06:33:47.597Z,39.10
2022-10-17T06:36:15.888Z,35.70
2022-10-17T06:38:46.293Z,35.25
2022-10-17T06:41:29.656Z,33.33
2022-10-17T06:44:11.193Z,33.08
2022-10-17T06:46:40.137Z,34.70
2022-10-17T06:49:11.202Z,33.22
2022-10-17T06:51:59.389Z,41.13
2022-10-17T06:54:36.981Z,51.55
2022-10-17T06:57:23.740Z,53.72
2022-10-17T07:00:07.163Z,45.47
2022-10-17T07:02:43.794Z,34.33
2022-10-17T07:05:14.162Z,29.50
2022-10-17T07:07:44.182Z,28.60
2022-10-17T07:10:13.743Z,25.08
2022-10-17T07:12:42.615Z,26.17
2022-10-17T07:15:11.224Z,25.60
2022-10-17T07:17:39.773Z,27.40
2022-10-17T07:20:08.883Z,27.65
2022-10-17T07:22:38.891Z,29.98
2022-10-17T07:25:08.732Z,31.10
2022-10-17T07:27:59.629Z,27.77
2022-10-17T07:30:28.264Z,28.65
2022-10-17T07:33:09.552Z,29.00
2022-10-17T07:35:41.199Z,32.65
2022-10-17T07:40:38.734Z,35.30
2022-10-17T07:43:06.772Z,35.08
2022-10-17T07:45:38.859Z,37.90
2022-10-17T07:48:09.178Z,50.28
2022-10-17T07:50:37.282Z,47.58
2022-10-17T07:53:05.015Z,46.10
2022-10-17T07:55:33.043Z,47.13
2022-10-17T07:58:01.110Z,55.28
2022-10-17T08:00:29.320Z,47.25
2022-10-17T08:02:59.907Z,43.97
2022-10-17T08:05:28.925Z,42.97
2022-10-17T08:07:56.767Z,43.10
2022-10-17T08:10:30.429Z,40.55
2022-10-17T08:12:59.226Z,40.55
2022-10-17T08:15:30.916Z,39.35
2022-10-17T08:17:59.978Z,39.80
2022-10-17T08:20:29.087Z,37.58
2022-10-17T08:22:56.988Z,30.98
2022-10-17T08:25:27.399Z,28.67
2022-10-17T08:27:55.279Z,27.23
2022-10-17T08:30:23.484Z,25.25
2022-10-17T08:32:51.634Z,27.65
2022-10-17T08:35:21.686Z,24.70
2022-10-17T08:37:49.588Z,25.77
2022-10-17T08:40:27.682Z,25.35
2022-10-17T08:43:36.493Z,24.80
2022-10-17T08:46:08.222Z,25.77
2022-10-17T08:48:45.620Z,24.42
2022-10-17T08:51:20.299Z,25.92
2022-10-17T08:54:17.229Z,24.27
2022-10-17T08:56:51.313Z,27.20
2022-10-17T08:59:30.663Z,30.27
2022-10-17T09:02:25.082Z,30.27
2022-10-17T09:05:25.532Z,27.55
2022-10-17T09:08:06.059Z,27.98
2022-10-17T09:10:52.560Z,26.73
2022-10-17T09:13:53.434Z,28.50
2022-10-17T09:16:31.281Z,26.92
2022-10-17T09:19:08.743Z,27.38
2022-10-17T09:21:59.074Z,26.92
2022-10-17T09:24:57.276Z,28.67
2022-10-17T09:27:51.661Z,30.63
2022-10-17T09:30:45.273Z,29.60
2022-10-17T09:33:28.095Z,31.60
2022-10-17T09:36:21.734Z,32.05
2022-10-17T09:39:26.871Z,29.63
2022-10-17T09:41:57.695Z,28.92
2022-10-17T09:44:34.373Z,28.05
2022-10-17T09:47:17.754Z,28.58
2022-10-17T09:49:47.840Z,27.23
2022-10-17T09:52:47.927Z,25.73
2022-10-17T09:55:22.484Z,26.48
2022-10-17T09:57:53.772Z,26.60
2022-10-17T10:00:30.367Z,31.92
2022-10-17T10:03:19.579Z,26.17
2022-10-17T10:06:02.463Z,22.02
2022-10-17T10:08:37.016Z,21.83
2022-10-17T10:11:13.517Z,21.25
2022-10-17T10:13:49.491Z,21.63
2022-10-17T10:16:24.625Z,21.23
2022-10-17T10:18:55.706Z,19.23
2022-10-17T10:24:11.009Z,16.40
2022-10-17T10:26:38.750Z,17.33
2022-10-17T10:29:22.467Z,16.60
2022-10-17T10:31:51.667Z,17.00
2022-10-17T10:34:29.280Z,18.05
2022-10-17T10:37:06.266Z,17.23
2022-10-17T10:39:46.898Z,19.10
2022-10-17T10:42:29.325Z,17.00
2022-10-17T10:45:42.773Z,18.85
2022-10-17T10:48:24.158Z,23.67
2022-10-17T10:51:14.565Z,24.85
2022-10-17T10:54:12.014Z,18.73
2022-10-17T10:56:53.629Z,20.58
2022-10-17T10:59:42.232Z,18.45
2022-10-17T11:02:20.505Z,17.45
2022-10-17T11:04:58.358Z,17.52
2022-10-17T11:07:41.225Z,17.50
2022-10-17T11:10:37.814Z,17.55
2022-10-17T11:13:10.293Z,19.25
2022-10-17T11:15:53.206Z,16.42
2022-10-17T11:18:35.529Z,15.48
2022-10-17T11:21:29.130Z,14.55
2022-10-17T11:24:10.280Z,13.27
2022-10-17T11:26:54.977Z,12.68
2022-10-17T11:29:30.967Z,13.73
2022-10-17T11:32:27.726Z,15.10
2022-10-17T11:35:02.244Z,12.70
2022-10-17T11:37:40.922Z,14.13
2022-10-17T11:40:30.154Z,13.75
2022-10-17T11:43:02.689Z,14.07
2022-10-17T11:45:50.340Z,13.65
2022-10-17T11:48:21.672Z,12.38
2022-10-17T11:53:46.753Z,13.68
2022-10-17T11:56:20.616Z,14.80
2022-10-17T11:59:06.617Z,13.45
2022-10-17T12:01:40.592Z,14.18
2022-10-17T12:04:25.728Z,13.63
2022-10-17T12:07:00.354Z,13.60
2022-10-17T12:09:41.076Z,15.80
2022-10-17T12:12:09.335Z,17.15
2022-10-17T12:14:47.412Z,18.63
2022-10-17T12:17:37.038Z,12.10
2022-10-17T12:20:28.977Z,12.75
2022-10-17T12:23:03.244Z,10.63
2022-10-17T12:25:34.573Z,10.48
2022-10-17T12:28:11.463Z,9.70
2022-10-17T12:30:52.825Z,9.52
2022-10-17T12:33:22.790Z,9.80
2022-10-17T12:35:52.323Z,9.85
2022-10-17T12:38:24.144Z,10.53
2022-10-17T12:41:01.767Z,12.75
2022-10-17T12:43:30.009Z,13.40
2022-10-17T12:46:05.005Z,12.52
2022-10-17T12:48:39.042Z,13.13
2022-10-17T12:51:37.326Z,13.18
2022-10-17T12:54:08.557Z,23.23
2022-10-17T12:56:43.179Z,18.45
2022-10-17T12:59:20.151Z,19.42
2022-10-17T13:01:51.221Z,20.80
2022-10-17T13:04:20.381Z,19.23
2022-10-17T13:06:54.380Z,20.50
2022-10-17T13:09:27.854Z,21.67
2022-10-17T13:11:58.108Z,22.27
2022-10-17T13:14:27.493Z,22.15
2022-10-17T13:16:58.216Z,23.88
2022-10-17T13:19:51.275Z,23.40
2022-10-17T13:22:25.018Z,24.48
2022-10-17T13:25:07.533Z,73.60
2022-10-17T13:27:36.471Z,28.92
2022-10-17T13:30:27.908Z,25.25
2022-10-17T13:32:59.492Z,26.25
2022-10-17T13:38:24.620Z,27.13
2022-10-17T13:41:01.363Z,26.33
2022-10-17T13:43:33.841Z,33.47
2022-10-17T13:46:25.630Z,27.20
2022-10-17T13:48:54.425Z,28.73
2022-10-17T13:51:23.489Z,27.77
2022-10-17T13:53:51.370Z,26.60
2022-10-17T13:56:29.611Z,26.33
2022-10-17T13:59:08.917Z,28.15
2022-10-17T14:01:38.473Z,26.20
2022-10-17T14:04:13.707Z,26.50
2022-10-17T14:06:51.177Z,27.35
2022-10-17T14:09:30.187Z,28.33
2022-10-17T14:12:01.103Z,28.98
2022-10-17T14:14:32.159Z,25.25
2022-10-17T14:17:32.596Z,26.42
2022-10-17T14:20:34.397Z,28.60
2022-10-17T14:23:21.316Z,24.83
2022-10-17T14:25:44.293Z,25.63
2022-10-17T14:28:14.348Z,25.60
2022-10-17T14:31:03.201Z,25.05
2022-10-17T14:33:33.894Z,25.77
2022-10-17T14:36:03.969Z,27.50
2022-10-17T14:38:32.514Z,30.98
2022-10-17T14:41:43.019Z,26.02
2022-10-17T14:44:43.642Z,27.00
2022-10-17T14:47:42.166Z,25.77
2022-10-17T14:50:11.412Z,28.33
2022-10-17T14:55:35.108Z,27.67
2022-10-17T14:58:23.241Z,27.80
2022-10-17T15:00:51.233Z,28.70
2022-10-17T15:03:19.765Z,34.95
2022-10-17T15:05:49.278Z,30.13
2022-10-17T15:08:19.646Z,28.27
2022-10-17T15:10:49.511Z,31.75
2022-10-17T15:13:39.912Z,28.92
2022-10-17T15:16:35.699Z,30.02
2022-10-17T15:19:03.606Z,27.05
2022-10-17T15:21:39.517Z,29.30
2022-10-17T15:24:08.469Z,27.80
2022-10-17T15:26:37.238Z,27.75
2022-10-17T15:29:08.045Z,25.90
2022-10-17T15:31:36.169Z,26.85
2022-10-17T15:34:03.961Z,26.25
2022-10-17T15:36:41.980Z,27.30
2022-10-17T15:39:10.485Z,27.23
2022-10-17T15:41:38.868Z,26.88
2022-10-17T15:44:06.935Z,29.98
2022-10-17T15:46:36.514Z,31.85
2022-10-17T15:49:08.114Z,34.92
2022-10-17T15:51:36.584Z,35.97
2022-10-17T15:54:05.859Z,32.55
2022-10-17T15:56:40.820Z,32.00
2022-10-17T15:59:15.424Z,34.13
2022-10-17T16:01:44.281Z,35.92
2022-10-17T16:04:15.647Z,55.55
2022-10-17T16:06:43.867Z,261.15
2022-10-17T16:09:14.550Z,253.65
2022-10-17T16:11:44.409Z,171.18
2022-10-17T16:14:18.480Z,132.45
2022-10-17T16:16:51.631Z,93.72
2022-10-17T16:19:22.995Z,73.55
2022-10-17T16:21:54.534Z,47.95
2022-10-17T16:24:25.244Z,48.10
2022-10-17T16:26:56.227Z,39.03
2022-10-17T16:29:24.259Z,35.22
2022-10-17T16:31:52.402Z,35.30
2022-10-17T16:34:23.369Z,34.55
2022-10-17T16:36:51.607Z,40.17
2022-10-17T16:39:19.549Z,59.90
2022-10-17T16:41:48.037Z,116.25
2022-10-17T16:44:18.039Z,79.38
2022-10-17T16:46:46.117Z,61.72
2022-10-17T16:49:16.211Z,47.30
2022-10-17T16:51:44.533Z,42.78
2022-10-17T16:54:12.598Z,44.38
2022-10-17T16:56:42.314Z,41.50
2022-10-17T16:59:11.350Z,46.20
2022-10-17T17:01:39.862Z,99.63
2022-10-17T17:04:09.597Z,111.57
2022-10-17T17:06:38.120Z,80.93
2022-10-17T17:09:06.704Z,74.53
2022-10-17T17:11:37.677Z,57.45
2022-10-17T17:14:11.048Z,56.85
2022-10-17T17:16:39.517Z,57.42
2022-10-17T17:19:11.518Z,73.90
2022-10-17T17:21:39.781Z,71.35
2022-10-17T17:24:10.639Z,53.00
2022-10-17T17:26:42.010Z,45.08
2022-10-17T17:29:11.922Z,38.42
2022-10-17T17:31:40.167Z,37.90
2022-10-17T17:34:12.088Z,37.00
2022-10-17T17:36:43.608Z,36.72
2022-10-17T17:39:14.303Z,35.33
2022-10-17T17:41:44.126Z,34.17
2022-10-17T17:44:16.767Z,32.40
2022-10-17T17:46:49.719Z,31.00
2022-10-17T17:49:17.549Z,29.10
2022-10-17T17:51:46.777Z,29.23
2022-10-17T17:54:14.909Z,29.67
2022-10-17T17:56:45.402Z,29.27
2022-10-17T17:59:13.898Z,29.95
2022-10-17T18:01:43.240Z,31.33
2022-10-17T18:04:12.136Z,38.80
2022-10-17T18:06:44.268Z,37.30
2022-10-17T18:09:12.481Z,40.70
2022-10-17T18:11:43.305Z,36.47
2022-10-17T18:14:13.790Z,37.97
2022-10-17T18:16:42.444Z,34.38
2022-10-17T18:19:11.972Z,32.88
2022-10-17T18:21:40.179Z,30.87
2022-10-17T18:24:11.400Z,30.05
2022-10-17T18:26:39.765Z,30.27
2022-10-17T18:29:07.727Z,28.33
2022-10-17T18:31:38.775Z,27.30
2022-10-17T18:34:06.656Z,30.58
2022-10-17T18:36:37.995Z,28.50
2022-10-17T18:39:06.411Z,28.60
2022-10-17T18:44:04.810Z,29.75
2022-10-17T18:46:40.245Z,31.80
2022-10-17T18:49:23.401Z,31.45
2022-10-17T18:51:51.826Z,31.23
2022-10-17T18:54:21.828Z,32.08
2022-10-17T18:56:51.534Z,31.73
2022-10-17T18:59:20.516Z,31.90
2022-10-17T19:01:49.205Z,31.23
2022-10-17T19:04:17.292Z,30.35
2022-10-17T19:06:45.445Z,32.38
2022-10-17T19:09:14.656Z,31.00
2022-10-17T19:11:43.387Z,33.13
2022-10-17T19:14:15.347Z,31.25
2022-10-17T19:16:47.037Z,31.48
2022-10-17T19:19:21.690Z,32.22
2022-10-17T19:21:50.635Z,31.05
2022-10-17T19:24:26.718Z,33.20
2022-10-17T19:26:57.838Z,31.52
2022-10-17T19:34:23.726Z,35.45
2022-10-17T19:36:51.763Z,33.70
2022-10-17T19:39:23.553Z,33.67
2022-10-17T19:41:51.727Z,32.78
2022-10-17T19:44:19.594Z,33.85
2022-10-17T19:46:49.474Z,33.40
2022-10-17T19:49:17.822Z,32.72
2022-10-17T19:51:46.460Z,32.20
2022-10-17T19:54:16.803Z,31.42
2022-10-17T19:56:45.188Z,30.48
2022-10-17T19:59:14.940Z,33.00
2022-10-17T20:01:43.935Z,31.13
2022-10-17T20:04:13.140Z,33.35
2022-10-17T20:06:44.073Z,32.28
2022-10-17T20:09:16.528Z,30.35
2022-10-17T20:11:45.869Z,33.60
2022-10-17T20:14:13.817Z,31.23
2022-10-17T20:16:42.664Z,33.75
2022-10-17T20:19:12.670Z,29.13
2022-10-17T20:21:42.477Z,31.23
2022-10-17T20:24:14.504Z,31.55
2022-10-17T20:26:43.494Z,31.80
2022-10-17T20:29:21.782Z,30.58
2022-10-17T20:31:50.273Z,29.55
2022-10-17T20:34:19.833Z,31.05
2022-10-17T20:36:48.761Z,31.98
2022-10-17T20:39:18.534Z,32.30
2022-10-17T20:41:47.262Z,30.60
2022-10-17T20:47:00.594Z,29.65
2022-10-17T20:49:30.320Z,31.85
2022-10-17T20:51:59.342Z,29.80
2022-10-17T20:54:30.642Z,31.08
2022-10-17T20:57:02.479Z,29.88
2022-10-17T20:59:34.518Z,29.60
2022-10-17T21:02:04.249Z,30.23
2022-10-17T21:04:45.922Z,28.33
2022-10-17T21:07:18.100Z,29.50
2022-10-17T21:09:48.363Z,29.65
2022-10-17T21:12:25.922Z,28.23
2022-10-17T21:15:04.813Z,28.45
2022-10-17T21:17:35.331Z,28.50
2022-10-17T21:20:03.306Z,28.50
2022-10-17T21:22:34.983Z,28.02
2022-10-17T21:25:02.724Z,28.50
2022-10-17T21:27:33.229Z,27.33
2022-10-17T21:30:01.123Z,27.42
2022-10-17T21:32:47.221Z,27.27
2022-10-17T21:35:17.208Z,27.88
2022-10-17T21:37:45.278Z,28.15
2022-10-17T21:40:13.314Z,27.83
2022-10-17T21:42:41.449Z,26.88
2022-10-17T21:45:15.162Z,26.92
2022-10-17T21:47:54.899Z,27.52
2022-10-17T21:50:32.624Z,26.23
2022-10-17T21:53:01.027Z,27.75
2022-10-17T21:55:29.007Z,26.20
2022-10-17T21:57:57.223Z,26.90
2022-10-17T22:00:25.182Z,27.52
2022-10-17T22:02:53.464Z,27.40
2022-10-17T22:05:21.409Z,26.63
2022-10-17T22:07:52.017Z,25.05
2022-10-17T22:10:20.025Z,25.80
2022-10-17T22:12:48.073Z,26.48
2022-10-17T22:15:16.022Z,26.17
2022-10-17T22:17:44.116Z,25.65
2022-10-17T22:20:11.975Z,26.52
2022-10-17T22:22:40.032Z,25.55
2022-10-17T22:25:08.285Z,25.50
2022-10-17T22:27:36.291Z,24.90
2022-10-17T22:30:05.334Z,24.92
2022-10-17T22:32:33.386Z,25.73
2022-10-17T22:35:01.194Z,24.98
2022-10-17T22:37:29.361Z,23.38
2022-10-17T22:39:57.385Z,24.30
2022-10-17T22:42:25.431Z,24.98
2022-10-17T22:44:53.144Z,24.88
2022-10-17T22:47:21.135Z,25.02
2022-10-17T22:49:48.901Z,25.05
2022-10-17T22:52:16.947Z,25.15
2022-10-17T22:54:44.770Z,24.60
2022-10-17T22:57:13.411Z,25.05
2022-10-17T22:59:41.193Z,24.33
2022-10-17T23:02:09.219Z,26.48
2022-10-17T23:04:37.486Z,24.80
2022-10-17T23:07:11.669Z,24.92
2022-10-17T23:09:39.575Z,24.73
2022-10-17T23:12:09.039Z,25.13
2022-10-17T23:14:43.454Z,25.38
2022-10-17T23:17:13.229Z,24.92
2022-10-17T23:19:41.394Z,24.13
2022-10-17T23:22:10.200Z,26.02
2022-10-17T23:24:37.965Z,26.05
2022-10-17T23:27:06.392Z,25.45
2022-10-17T23:29:35.462Z,24.88
2022-10-17T23:32:03.599Z,25.17
2022-10-17T23:34:31.789Z,24.67
2022-10-17T23:36:59.882Z,26.33
2022-10-17T23:39:27.761Z,24.98
2022-10-17T23:41:55.933Z,24.80
2022-10-17T23:44:24.048Z,24.58
2022-10-17T23:46:52.270Z,25.48
2022-10-17T23:49:20.043Z,25.40
2022-10-17T23:51:50.404Z,26.42
2022-10-17T23:54:18.231Z,26.57
2022-10-17T23:56:46.537Z,25.92
2022-10-17T23:59:14.241Z,25.92
